Cleveland, OH (44142)

5:27 PM EST on February 01, 2015 (GMT -0500)
Brook Park | Change Station
CLOSE
Current Station
Personal Weather Station
Location: Brook Park, OH
Elevation: 832 ft
Nearby Weather Stations

Elev 832 ft 41.39 °N, 81.79 °W | Updated 11 seconds ago

Light Snow
Light Snow Mist
32.6 °F
Feels Like 25 °F
N
8.2
Wind Variable Wind from ESE
Gusts 11.5 mph

Today
High -- | Low -- °F
--% Chance of Precip.
Yesterday
High -- | Low -- °F
Precip. -- in
7:39 AM 5:43 PM
Waxing Gibbous, 96% visible
Pressure 29.79 in
Visibility 1.0 miles
Clouds Scattered Clouds 1000 ft
Overcast 2000 ft
Windchill 25 °F
Dew Point 31 °F
Humidity 94%
Rainfall 0.30 in
Snow Depth Not available.
UV 0.0 out of 12
Pollen .10 out of 12
Air Quality Not available.
Flu Activity Not available.
METAR KCLE 012201Z 10010KT 1SM -SN BR SCT010 OVC020 00/M02 A2979 RMK AO2 PRESFR P0001 T00001017 $

More Conditions Fewer Conditions

Pressure 29.79 in
Visibility 1.0 miles
Clouds Scattered Clouds 1000 ft
Overcast 2000 ft
Windchill 25 °F
Dew Point 31 °F
Humidity 94%
Rainfall 0.30 in
Snow Depth Not available.
UV 0.0 out of 12
Pollen .10 out of 12
Air Quality Not available.
Flu Activity Not available.
METAR KCLE 012201Z 10010KT 1SM -SN BR SCT010 OVC020 00/M02 A2979 RMK AO2 PRESFR P0001 T00001017 $

More Conditions Fewer Conditions

10-Day Weather Forecast

Almanac

Astronomy

Feb. 01, 2015 Rise Set
Actual Time
Civil Twilight
Nautical Twilight
Astronomical Twilight
Moon
Length of Visible Light
Length of Day
Tomorrow will be .
, % of the Moon is Illuminated

Today's Extremes

State Highs State Lows

Community

WunderPhotos

Upload Photos

1,792,568 photos uploaded!

WunderBlogs® & News

Nearby

Air Quality

  Air Quality AQ Index Pollutant
Not available.

Snow Depth

Station Depth Elevation

Earthquake Activity

City Distance Mag. Time & Date
Minimum magnitude displayed is 2.5.

Coastal Water Temperatures

Place Temperature

Nearby Weather Stations